createdAt,value
2022-12-26T00:00:19.158Z,15.55
2022-12-26T00:03:22.345Z,12.25
2022-12-26T00:06:28.525Z,11.93
2022-12-26T00:09:33.844Z,10.68
2022-12-26T00:12:38.895Z,18.67
2022-12-26T00:15:43.206Z,11.85
2022-12-26T00:18:47.575Z,12.82
2022-12-26T00:21:50.797Z,12.85
2022-12-26T00:24:54.003Z,11.30
2022-12-26T00:27:58.531Z,14.65
2022-12-26T00:31:05.846Z,13.27
2022-12-26T00:34:08.919Z,13.80
2022-12-26T00:37:11.972Z,13.15
2022-12-26T00:40:15.369Z,12.13
2022-12-26T00:43:19.928Z,15.30
2022-12-26T00:46:23.222Z,13.82
2022-12-26T00:49:26.443Z,13.73
2022-12-26T00:52:29.464Z,16.20
2022-12-26T00:55:32.772Z,15.65
2022-12-26T00:58:40.462Z,17.10
2022-12-26T01:01:43.652Z,14.02
2022-12-26T01:04:46.811Z,15.30
2022-12-26T01:08:20.348Z,14.82
2022-12-26T01:11:16.071Z,14.40
2022-12-26T01:14:20.364Z,16.17
2022-12-26T01:17:23.662Z,14.32
2022-12-26T01:20:26.806Z,12.13
2022-12-26T01:23:29.875Z,13.70
2022-12-26T01:26:33.126Z,12.20
2022-12-26T01:29:37.435Z,17.97
2022-12-26T01:32:40.399Z,14.82
2022-12-26T01:35:53.972Z,13.57
2022-12-26T01:38:57.169Z,11.40
2022-12-26T01:42:00.340Z,13.98
2022-12-26T01:45:18.696Z,15.23
2022-12-26T01:48:33.443Z,14.80
2022-12-26T01:51:41.651Z,15.27
2022-12-26T01:54:49.453Z,13.07
2022-12-26T01:57:57.684Z,13.10
2022-12-26T02:01:06.135Z,15.23
2022-12-26T02:04:44.911Z,14.88
2022-12-26T02:07:48.512Z,15.77
2022-12-26T02:10:58.169Z,16.23
2022-12-26T02:14:03.247Z,15.23
2022-12-26T02:17:08.595Z,17.90
2022-12-26T02:20:20.764Z,13.68
2022-12-26T02:24:13.969Z,14.38
2022-12-26T02:27:40.293Z,21.95
2022-12-26T02:30:51.762Z,17.27
2022-12-26T02:34:06.294Z,16.65
2022-12-26T02:37:28.945Z,17.92
2022-12-26T02:40:50.637Z,16.35
2022-12-26T02:44:27.587Z,13.70
2022-12-26T02:47:42.587Z,19.90
2022-12-26T02:51:22.075Z,15.30
2022-12-26T02:54:49.768Z,17.73
2022-12-26T02:58:21.238Z,13.43
2022-12-26T03:01:50.069Z,13.52
2022-12-26T03:05:15.311Z,16.08
2022-12-26T03:08:45.540Z,13.90
2022-12-26T03:12:10.929Z,20.38
2022-12-26T03:15:18.462Z,14.90
2022-12-26T03:18:56.808Z,15.38
2022-12-26T03:21:49.509Z,12.55
2022-12-26T03:25:09.128Z,13.00
2022-12-26T03:28:13.903Z,15.07
2022-12-26T03:31:17.210Z,15.95
2022-12-26T03:34:20.588Z,17.13
2022-12-26T03:37:50.222Z,15.20
2022-12-26T03:41:20.256Z,13.02
2022-12-26T03:44:53.967Z,13.02
2022-12-26T03:48:23.885Z,20.67
2022-12-26T03:51:52.124Z,15.10
2022-12-26T03:55:30.320Z,12.50
2022-12-26T03:58:57.969Z,13.20
2022-12-26T04:02:39.790Z,12.77
2022-12-26T04:06:05.858Z,14.25
2022-12-26T04:09:34.888Z,15.93
2022-12-26T04:13:00.295Z,14.20
2022-12-26T04:16:31.503Z,14.88
2022-12-26T04:20:03.188Z,14.95
2022-12-26T04:23:30.231Z,12.90
2022-12-26T04:26:59.276Z,19.25
2022-12-26T04:30:21.296Z,17.90
2022-12-26T04:33:48.082Z,14.73
2022-12-26T04:37:16.289Z,14.23
2022-12-26T04:40:45.243Z,18.13
2022-12-26T04:44:10.392Z,21.48
2022-12-26T04:47:14.938Z,18.92
2022-12-26T04:50:17.132Z,18.38
2022-12-26T04:53:24.960Z,14.48
2022-12-26T04:56:28.042Z,15.60
2022-12-26T04:59:31.180Z,21.33
2022-12-26T05:02:53.145Z,17.25
2022-12-26T05:06:13.858Z,18.70
2022-12-26T05:09:36.794Z,25.80
2022-12-26T05:12:39.809Z,17.23
2022-12-26T05:15:56.826Z,19.17
2022-12-26T05:19:18.940Z,24.90
2022-12-26T05:22:40.176Z,16.52
2022-12-26T05:26:03.651Z,17.48
2022-12-26T05:29:06.749Z,18.17
2022-12-26T05:32:09.847Z,18.88
2022-12-26T05:35:13.479Z,20.98
2022-12-26T05:38:16.545Z,19.98
2022-12-26T05:41:19.927Z,27.30
2022-12-26T05:44:23.003Z,25.17
2022-12-26T05:47:26.015Z,17.08
2022-12-26T05:50:30.915Z,14.73
2022-12-26T05:53:34.727Z,20.20
2022-12-26T05:56:37.845Z,16.48
2022-12-26T05:59:40.938Z,17.60
2022-12-26T06:02:44.195Z,18.40
2022-12-26T06:05:49.064Z,14.03
2022-12-26T06:08:54.827Z,13.80
2022-12-26T06:11:57.900Z,15.65
2022-12-26T06:15:00.949Z,17.08
2022-12-26T06:18:04.095Z,14.70
2022-12-26T06:21:11.977Z,15.63
2022-12-26T06:24:15.445Z,14.18
2022-12-26T06:27:18.532Z,13.48
2022-12-26T06:30:21.542Z,16.77
2022-12-26T06:33:25.117Z,17.90
2022-12-26T06:36:30.787Z,17.10
2022-12-26T06:39:34.006Z,13.07
2022-12-26T06:42:37.235Z,12.53
2022-12-26T06:45:40.244Z,15.13
2022-12-26T06:48:43.558Z,12.70
2022-12-26T06:51:47.937Z,16.33
2022-12-26T06:54:51.025Z,21.02
2022-12-26T06:57:54.308Z,12.57
2022-12-26T07:00:57.395Z,14.13
2022-12-26T07:04:01.621Z,16.67
2022-12-26T07:10:10.268Z,16.30
2022-12-26T07:13:13.309Z,17.98
2022-12-26T07:16:16.517Z,20.52
2022-12-26T07:19:19.746Z,22.43
2022-12-26T07:22:24.298Z,37.65
2022-12-26T07:25:27.303Z,31.33
2022-12-26T07:28:31.067Z,34.88
2022-12-26T07:31:34.158Z,32.33
2022-12-26T07:34:37.165Z,28.30
2022-12-26T07:37:41.589Z,32.88
2022-12-26T07:40:44.570Z,39.25
2022-12-26T07:43:47.575Z,38.63
2022-12-26T07:46:51.161Z,37.97
2022-12-26T07:49:54.249Z,31.13
2022-12-26T07:53:00.292Z,27.50
2022-12-26T07:56:03.783Z,43.35
2022-12-26T07:59:06.761Z,45.63
2022-12-26T08:02:11.931Z,67.65
2022-12-26T08:05:16.438Z,57.40
2022-12-26T08:08:21.017Z,68.38
2022-12-26T08:11:25.870Z,75.03
2022-12-26T08:14:28.872Z,35.65
2022-12-26T08:17:32.779Z,43.17
2022-12-26T08:20:35.842Z,57.58
2022-12-26T08:23:40.438Z,37.90
2022-12-26T08:26:43.452Z,22.58
2022-12-26T08:29:46.387Z,19.45
2022-12-26T08:32:49.553Z,22.80
2022-12-26T08:35:52.919Z,24.27
2022-12-26T08:38:58.551Z,30.80
2022-12-26T08:42:01.464Z,22.30
2022-12-26T08:45:04.828Z,23.42
2022-12-26T08:48:07.875Z,17.20
2022-12-26T08:51:15.444Z,18.42
2022-12-26T08:54:19.809Z,16.10
2022-12-26T08:57:22.881Z,15.38
2022-12-26T09:00:26.442Z,15.10
2022-12-26T09:03:29.553Z,23.52
2022-12-26T09:06:35.638Z,26.73
2022-12-26T09:09:40.129Z,21.13
2022-12-26T09:12:43.228Z,16.42
2022-12-26T09:15:46.251Z,16.73
2022-12-26T09:18:53.987Z,17.67
2022-12-26T09:22:11.536Z,16.88
2022-12-26T09:25:15.990Z,23.83
2022-12-26T09:28:20.987Z,15.68
2022-12-26T09:31:27.465Z,13.98
2022-12-26T09:34:30.795Z,13.65
2022-12-26T09:37:34.369Z,14.47
2022-12-26T09:40:55.614Z,11.88
2022-12-26T09:44:10.012Z,13.65
2022-12-26T09:47:32.853Z,12.10
2022-12-26T09:50:43.608Z,9.80
2022-12-26T09:53:48.600Z,11.23
2022-12-26T09:57:02.622Z,9.80
2022-12-26T10:00:17.420Z,11.15
2022-12-26T10:03:21.167Z,8.20
2022-12-26T10:06:26.956Z,9.43
2022-12-26T10:09:57.388Z,12.27
2022-12-26T10:13:12.356Z,12.75
2022-12-26T10:16:23.693Z,9.43
2022-12-26T10:19:57.421Z,9.55
2022-12-26T10:23:43.582Z,9.95
2022-12-26T10:26:58.096Z,10.77
2022-12-26T10:30:15.024Z,8.90
2022-12-26T10:33:30.416Z,9.38
2022-12-26T10:36:40.391Z,11.55
2022-12-26T10:39:49.765Z,10.02
2022-12-26T10:42:55.948Z,10.07
2022-12-26T10:46:50.217Z,10.05
2022-12-26T10:49:59.693Z,10.13
2022-12-26T10:53:07.937Z,9.38
2022-12-26T10:56:16.373Z,9.35
2022-12-26T10:59:29.776Z,9.65
2022-12-26T11:02:34.388Z,8.50
2022-12-26T11:06:07.051Z,9.32
2022-12-26T11:09:06.063Z,10.48
2022-12-26T11:12:21.825Z,10.35
2022-12-26T11:15:40.429Z,8.02
2022-12-26T11:18:52.341Z,7.20
2022-12-26T11:21:55.845Z,5.70
2022-12-26T11:25:23.101Z,5.78
2022-12-26T11:28:31.490Z,8.68
2022-12-26T11:31:35.499Z,8.05
2022-12-26T11:34:46.982Z,5.68
2022-12-26T11:37:56.181Z,5.57
2022-12-26T11:41:13.699Z,4.53
2022-12-26T11:44:28.912Z,4.50
2022-12-26T11:47:32.121Z,5.72
2022-12-26T11:50:47.431Z,6.90
2022-12-26T11:53:50.529Z,7.07
2022-12-26T11:57:16.074Z,11.57
2022-12-26T12:00:24.582Z,10.60
2022-12-26T12:03:35.508Z,13.77
2022-12-26T12:07:00.884Z,11.88
2022-12-26T12:10:29.306Z,10.27
2022-12-26T12:14:06.689Z,10.48
2022-12-26T12:17:23.058Z,12.75
2022-12-26T12:20:37.013Z,14.00
2022-12-26T12:24:05.285Z,16.02
2022-12-26T12:27:18.335Z,12.40
2022-12-26T12:30:25.359Z,14.55
2022-12-26T12:33:53.495Z,16.00
2022-12-26T12:37:17.606Z,13.63
2022-12-26T12:40:34.787Z,15.68
2022-12-26T12:43:51.685Z,16.20
2022-12-26T12:47:08.330Z,13.82
2022-12-26T12:50:24.703Z,14.45
2022-12-26T12:53:51.981Z,15.73
2022-12-26T12:57:08.447Z,13.88
2022-12-26T13:00:19.469Z,15.57
2022-12-26T13:03:34.222Z,19.52
2022-12-26T13:06:44.524Z,16.75
2022-12-26T13:09:52.976Z,14.55
2022-12-26T13:13:00.164Z,15.65
2022-12-26T13:16:11.409Z,16.17
2022-12-26T13:19:21.414Z,20.73
2022-12-26T13:22:28.682Z,17.63
2022-12-26T13:25:38.974Z,13.73
2022-12-26T13:28:55.569Z,15.27
2022-12-26T13:32:00.278Z,17.13
2022-12-26T13:35:04.327Z,13.45
2022-12-26T13:38:07.537Z,13.60
2022-12-26T13:41:36.615Z,11.45
2022-12-26T13:44:41.663Z,11.75
2022-12-26T13:47:44.799Z,16.45
2022-12-26T13:50:55.795Z,13.50
2022-12-26T13:54:09.816Z,12.68
2022-12-26T13:57:40.080Z,17.33
2022-12-26T14:00:49.091Z,13.93
2022-12-26T14:04:30.957Z,13.80
2022-12-26T14:07:43.755Z,13.95
2022-12-26T14:10:59.524Z,12.80
2022-12-26T14:14:18.450Z,15.38
2022-12-26T14:17:38.419Z,17.73
2022-12-26T14:20:50.187Z,11.80
2022-12-26T14:24:04.316Z,12.05
2022-12-26T14:27:30.194Z,14.00
2022-12-26T14:30:53.622Z,11.43
2022-12-26T14:34:14.851Z,14.13
2022-12-26T14:37:29.316Z,12.85
2022-12-26T14:43:39.013Z,12.38
2022-12-26T14:50:44.001Z,12.18
2022-12-26T14:54:34.341Z,10.93
2022-12-26T14:57:47.624Z,11.45
2022-12-26T15:00:51.590Z,12.43
2022-12-26T15:04:03.171Z,12.90
2022-12-26T15:08:19.311Z,12.00
2022-12-26T15:15:32.900Z,12.40
2022-12-26T15:19:19.207Z,12.38
2022-12-26T15:23:17.018Z,13.70
2022-12-26T15:27:08.633Z,8.95
2022-12-26T15:30:21.547Z,8.73
2022-12-26T15:33:32.779Z,12.23
2022-12-26T15:36:49.831Z,12.82
2022-12-26T15:40:08.116Z,10.48
2022-12-26T15:43:50.275Z,10.25
2022-12-26T15:47:15.598Z,10.43
2022-12-26T15:50:29.785Z,9.10
2022-12-26T15:53:52.314Z,9.07
2022-12-26T15:57:16.041Z,11.77
2022-12-26T16:00:24.804Z,8.35
2022-12-26T16:03:38.390Z,8.98
2022-12-26T16:07:07.898Z,6.40
2022-12-26T16:10:32.881Z,4.80
2022-12-26T16:13:36.504Z,8.88
2022-12-26T16:16:41.347Z,5.65
2022-12-26T16:19:47.440Z,8.13
2022-12-26T16:22:49.723Z,9.40
2022-12-26T16:25:56.994Z,5.07
2022-12-26T16:29:02.102Z,6.25
2022-12-26T16:32:08.712Z,5.32
2022-12-26T16:35:21.673Z,5.45
2022-12-26T16:38:31.390Z,5.00
2022-12-26T16:41:39.023Z,3.30
2022-12-26T16:44:44.490Z,5.47
2022-12-26T16:47:49.760Z,3.05
2022-12-26T16:50:55.711Z,1.40
2022-12-26T16:54:17.772Z,2.22
2022-12-26T16:57:22.454Z,2.60
2022-12-26T17:00:26.564Z,2.47
2022-12-26T17:06:51.052Z,3.03
2022-12-26T17:09:59.220Z,2.88
2022-12-26T17:13:07.654Z,2.60
2022-12-26T17:16:11.318Z,5.00
2022-12-26T17:19:21.819Z,2.03
2022-12-26T17:22:31.672Z,1.63
2022-12-26T17:25:34.762Z,4.55
2022-12-26T17:28:38.817Z,2.72
2022-12-26T17:31:45.281Z,4.45
2022-12-26T17:34:50.120Z,8.55
2022-12-26T17:37:58.778Z,5.85
2022-12-26T17:41:06.867Z,6.38
2022-12-26T17:44:36.382Z,10.38
2022-12-26T17:47:39.660Z,4.53
2022-12-26T17:50:47.607Z,7.73
2022-12-26T17:53:52.752Z,6.55
2022-12-26T17:56:55.986Z,7.90
2022-12-26T17:59:59.641Z,7.37
2022-12-26T18:03:02.937Z,10.52
2022-12-26T18:06:07.731Z,6.67
2022-12-26T18:09:27.220Z,10.20
2022-12-26T18:12:30.369Z,12.90
2022-12-26T18:15:33.905Z,8.93
2022-12-26T18:18:40.701Z,7.53
2022-12-26T18:21:45.633Z,12.25
2022-12-26T18:24:48.673Z,8.25
2022-12-26T18:27:53.481Z,12.02
2022-12-26T18:30:58.149Z,22.15
2022-12-26T18:34:01.126Z,9.75
2022-12-26T18:37:05.584Z,10.07
2022-12-26T18:40:30.617Z,8.73
2022-12-26T18:43:33.846Z,16.92
2022-12-26T18:46:37.082Z,21.47
2022-12-26T18:49:40.683Z,18.83
2022-12-26T18:52:48.693Z,9.52
2022-12-26T18:55:56.496Z,9.63
2022-12-26T18:58:59.514Z,17.23
2022-12-26T19:02:03.167Z,12.07
2022-12-26T19:05:07.157Z,13.60
2022-12-26T19:08:12.923Z,18.10
2022-12-26T19:11:16.451Z,16.35
2022-12-26T19:14:22.860Z,16.63
2022-12-26T19:17:25.837Z,12.77
2022-12-26T19:20:29.419Z,13.15
2022-12-26T19:23:33.837Z,12.25
2022-12-26T19:26:36.920Z,11.23
2022-12-26T19:29:40.039Z,19.73
2022-12-26T19:32:44.121Z,11.90
2022-12-26T19:38:54.032Z,11.82
2022-12-26T19:41:57.160Z,14.05
2022-12-26T19:45:00.572Z,17.10
2022-12-26T19:48:04.435Z,10.82
2022-12-26T19:51:11.150Z,12.02
2022-12-26T19:54:15.683Z,14.77
2022-12-26T19:57:19.114Z,13.00
2022-12-26T20:00:22.867Z,14.05
2022-12-26T20:03:25.957Z,12.07
2022-12-26T20:06:31.620Z,9.52
2022-12-26T20:09:37.325Z,11.05
2022-12-26T20:12:40.532Z,14.65
2022-12-26T20:15:43.510Z,8.83
2022-12-26T20:18:47.463Z,16.38
2022-12-26T20:21:51.626Z,16.13
2022-12-26T20:27:58.956Z,13.43
2022-12-26T20:31:09.100Z,11.00
2022-12-26T20:34:16.176Z,15.02
2022-12-26T20:37:19.196Z,18.77
2022-12-26T20:40:25.463Z,10.77
2022-12-26T20:46:51.655Z,10.40
2022-12-26T20:49:54.835Z,13.55
2022-12-26T20:52:58.533Z,8.15
2022-12-26T20:56:04.103Z,15.32
2022-12-26T20:59:08.145Z,12.63
2022-12-26T21:02:12.956Z,14.70
2022-12-26T21:05:16.715Z,18.52
2022-12-26T21:08:20.315Z,15.65
2022-12-26T21:11:27.807Z,14.30
2022-12-26T21:14:31.237Z,14.85
2022-12-26T21:17:34.434Z,15.07
2022-12-26T21:20:38.756Z,17.40
2022-12-26T21:23:42.745Z,17.65
2022-12-26T21:26:50.212Z,25.40
2022-12-26T21:29:53.584Z,14.52
2022-12-26T21:32:57.555Z,18.35
2022-12-26T21:36:01.085Z,12.05
2022-12-26T21:39:09.780Z,15.90
2022-12-26T21:42:14.847Z,11.35
2022-12-26T21:45:19.361Z,11.38
2022-12-26T21:48:23.808Z,16.05
2022-12-26T21:51:29.299Z,12.50
2022-12-26T21:54:50.008Z,16.92
2022-12-26T21:57:56.284Z,16.30
2022-12-26T22:00:59.676Z,12.15
2022-12-26T22:04:20.191Z,11.18
2022-12-26T22:07:23.408Z,15.65
2022-12-26T22:10:49.380Z,16.13
2022-12-26T22:13:53.873Z,18.38
2022-12-26T22:16:59.330Z,14.20
2022-12-26T22:20:02.372Z,14.95
2022-12-26T22:23:05.838Z,12.98
2022-12-26T22:26:11.740Z,15.40
2022-12-26T22:29:17.201Z,16.88
2022-12-26T22:32:20.290Z,17.88
2022-12-26T22:35:23.363Z,23.13
2022-12-26T22:38:27.927Z,14.68
2022-12-26T22:41:31.086Z,20.45
2022-12-26T22:44:35.593Z,15.50
2022-12-26T22:47:38.707Z,14.77
2022-12-26T22:50:44.408Z,16.77
2022-12-26T22:53:48.135Z,9.95
2022-12-26T22:56:51.132Z,17.17
2022-12-26T23:00:11.605Z,15.93
2022-12-26T23:03:15.642Z,13.05
2022-12-26T23:06:25.055Z,19.75
2022-12-26T23:09:28.711Z,12.10
2022-12-26T23:12:44.570Z,17.35
2022-12-26T23:16:00.272Z,17.10
2022-12-26T23:19:34.980Z,14.85
2022-12-26T23:22:38.870Z,13.25
2022-12-26T23:25:41.960Z,17.52
2022-12-26T23:29:02.627Z,11.70
2022-12-26T23:32:08.736Z,15.38
2022-12-26T23:35:13.649Z,21.98
2022-12-26T23:38:16.713Z,14.55
2022-12-26T23:41:19.705Z,12.77
2022-12-26T23:44:23.033Z,15.10
2022-12-26T23:47:27.734Z,11.87
2022-12-26T23:50:30.817Z,12.70
2022-12-26T23:53:34.103Z,11.57
2022-12-26T23:56:38.135Z,9.73
